createdAt,value
2022-12-18T00:01:41.540Z,28.02
2022-12-18T00:04:08.069Z,28.05
2022-12-18T00:06:34.498Z,28.54
2022-12-18T00:09:00.834Z,27.57
2022-12-18T00:11:27.220Z,27.94
2022-12-18T00:13:53.609Z,27.96
2022-12-18T00:16:20.018Z,27.59
2022-12-18T00:18:46.398Z,28.29
2022-12-18T00:21:12.726Z,28.04
2022-12-18T00:23:39.456Z,28.14
2022-12-18T00:26:06.146Z,27.84
2022-12-18T00:28:32.520Z,28.63
2022-12-18T00:30:58.902Z,28.26
2022-12-18T00:33:25.244Z,28.14
2022-12-18T00:35:51.629Z,28.42
2022-12-18T00:38:18.036Z,28.36
2022-12-18T00:40:44.459Z,28.45
2022-12-18T00:43:10.801Z,27.77
2022-12-18T00:45:37.217Z,27.86
2022-12-18T00:48:03.623Z,27.88
2022-12-18T00:50:31.012Z,27.63
2022-12-18T00:52:57.488Z,27.81
2022-12-18T00:55:23.874Z,27.98
2022-12-18T00:57:50.223Z,27.79
2022-12-18T01:00:16.591Z,27.20
2022-12-18T01:02:43.163Z,28.44
2022-12-18T01:05:09.726Z,28.76
2022-12-18T01:07:36.127Z,28.40
2022-12-18T01:10:02.512Z,28.45
2022-12-18T01:12:28.908Z,29.04
2022-12-18T01:14:55.276Z,28.95
2022-12-18T01:17:21.666Z,28.47
2022-12-18T01:19:48.027Z,29.04
2022-12-18T01:22:14.379Z,30.06
2022-12-18T01:24:40.761Z,29.05
2022-12-18T01:27:07.108Z,29.19
2022-12-18T01:29:33.476Z,28.77
2022-12-18T01:31:59.920Z,29.48
2022-12-18T01:34:26.384Z,29.13
2022-12-18T01:36:52.764Z,29.63
2022-12-18T01:39:19.097Z,29.88
2022-12-18T01:41:45.434Z,28.47
2022-12-18T01:44:11.765Z,29.14
2022-12-18T01:46:38.141Z,28.12
2022-12-18T01:49:04.529Z,28.06
2022-12-18T01:51:30.918Z,27.88
2022-12-18T01:53:57.255Z,28.30
2022-12-18T01:56:23.591Z,27.89
2022-12-18T01:58:49.945Z,28.87
2022-12-18T02:01:16.464Z,29.26
2022-12-18T02:03:42.958Z,28.89
2022-12-18T02:06:09.367Z,28.74
2022-12-18T02:08:35.717Z,29.18
2022-12-18T02:11:02.078Z,29.37
2022-12-18T02:13:28.474Z,28.70
2022-12-18T02:15:54.862Z,29.21
2022-12-18T02:18:21.255Z,29.34
2022-12-18T02:20:47.638Z,29.64
2022-12-18T02:23:13.983Z,29.87
2022-12-18T02:25:40.320Z,29.64
2022-12-18T02:28:06.653Z,29.25
2022-12-18T02:30:33.032Z,29.63
2022-12-18T02:32:59.438Z,29.70
2022-12-18T02:35:25.813Z,29.79
2022-12-18T02:37:52.191Z,29.98
2022-12-18T02:40:18.589Z,29.62
2022-12-18T02:42:44.977Z,29.58
2022-12-18T02:45:11.377Z,29.98
2022-12-18T02:47:37.730Z,29.54
2022-12-18T02:50:04.065Z,29.28
2022-12-18T02:52:30.438Z,29.76
2022-12-18T02:54:56.827Z,28.26
2022-12-18T02:57:23.181Z,29.85
2022-12-18T02:59:49.525Z,29.84
2022-12-18T03:02:15.994Z,30.02
2022-12-18T03:04:42.519Z,29.73
2022-12-18T03:07:08.913Z,30.15
2022-12-18T03:09:35.254Z,29.08
2022-12-18T03:12:01.595Z,29.41
2022-12-18T03:14:27.948Z,30.19
2022-12-18T03:16:54.434Z,29.81
2022-12-18T03:19:20.870Z,29.77
2022-12-18T03:21:47.244Z,29.71
2022-12-18T03:24:13.600Z,29.39
2022-12-18T03:26:39.986Z,29.47
2022-12-18T03:29:06.333Z,29.20
2022-12-18T03:31:32.703Z,29.54
2022-12-18T03:33:59.118Z,29.67
2022-12-18T03:36:25.551Z,30.16
2022-12-18T03:38:51.942Z,30.46
2022-12-18T03:41:18.450Z,30.23
2022-12-18T03:43:44.824Z,29.84
2022-12-18T03:46:11.210Z,29.10
2022-12-18T03:48:37.582Z,28.58
2022-12-18T03:51:03.919Z,29.76
2022-12-18T03:53:30.256Z,29.57
2022-12-18T03:55:56.640Z,29.42
2022-12-18T03:58:22.996Z,30.16
2022-12-18T04:00:49.397Z,44.65
2022-12-18T04:03:15.861Z,30.54
2022-12-18T04:05:42.262Z,28.56
2022-12-18T04:08:08.644Z,29.50
2022-12-18T04:10:35.031Z,29.73
2022-12-18T04:13:01.436Z,28.10
2022-12-18T04:15:27.854Z,28.54
2022-12-18T04:17:54.242Z,27.36
2022-12-18T04:20:20.576Z,27.11
2022-12-18T04:22:46.947Z,26.67
2022-12-18T04:25:13.289Z,26.50
2022-12-18T04:27:39.620Z,26.98
2022-12-18T04:30:06.001Z,26.13
2022-12-18T04:32:32.349Z,26.19
2022-12-18T04:34:58.686Z,26.22
2022-12-18T04:37:25.064Z,27.33
2022-12-18T04:39:51.455Z,27.54
2022-12-18T04:42:17.868Z,27.35
2022-12-18T04:44:44.250Z,28.15
2022-12-18T04:47:10.621Z,31.28
2022-12-18T04:49:36.952Z,28.45
2022-12-18T04:52:03.287Z,28.73
2022-12-18T04:54:29.676Z,29.09
2022-12-18T04:56:56.055Z,28.46
2022-12-18T04:59:22.454Z,28.71
2022-12-18T05:01:49.916Z,28.53
2022-12-18T05:04:16.451Z,27.66
2022-12-18T05:06:43.100Z,27.45
2022-12-18T05:09:09.457Z,27.62
2022-12-18T05:11:36.078Z,27.30
2022-12-18T05:14:02.475Z,27.61
2022-12-18T05:16:28.974Z,27.63
2022-12-18T05:18:55.419Z,27.72
2022-12-18T05:21:21.775Z,27.96
2022-12-18T05:23:48.126Z,27.18
2022-12-18T05:26:14.506Z,27.05
2022-12-18T05:28:40.851Z,27.45
2022-12-18T05:31:07.334Z,27.34
2022-12-18T05:33:33.771Z,26.89
2022-12-18T05:36:00.160Z,27.24
2022-12-18T05:38:26.548Z,27.26
2022-12-18T05:40:52.942Z,27.12
2022-12-18T05:43:21.373Z,27.58
2022-12-18T05:45:48.089Z,26.84
2022-12-18T05:48:14.470Z,27.07
2022-12-18T05:50:40.828Z,27.35
2022-12-18T05:53:07.163Z,27.19
2022-12-18T05:55:33.527Z,27.29
2022-12-18T05:57:59.906Z,26.68
2022-12-18T06:00:26.253Z,26.34
2022-12-18T06:02:52.747Z,25.31
2022-12-18T06:05:19.278Z,25.14
2022-12-18T06:07:46.514Z,25.03
2022-12-18T06:10:12.865Z,24.55
2022-12-18T06:12:39.245Z,24.96
2022-12-18T06:15:05.803Z,24.65
2022-12-18T06:17:32.151Z,24.96
2022-12-18T06:19:58.529Z,24.47
2022-12-18T06:22:24.925Z,25.35
2022-12-18T06:24:51.285Z,26.57
2022-12-18T06:27:17.931Z,25.92
2022-12-18T06:29:44.492Z,25.94
2022-12-18T06:32:10.945Z,25.45
2022-12-18T06:34:37.348Z,25.74
2022-12-18T06:37:03.703Z,25.97
2022-12-18T06:39:30.086Z,26.22
2022-12-18T06:41:56.470Z,26.43
2022-12-18T06:44:22.945Z,25.91
2022-12-18T06:46:49.330Z,26.07
2022-12-18T06:49:15.692Z,26.65
2022-12-18T06:51:42.063Z,26.74
2022-12-18T06:54:08.394Z,26.63
2022-12-18T06:56:34.739Z,26.59
2022-12-18T06:59:01.086Z,27.04
2022-12-18T07:01:27.518Z,26.67
2022-12-18T07:03:53.956Z,26.44
2022-12-18T07:06:20.360Z,27.17
2022-12-18T07:08:46.751Z,27.40
2022-12-18T07:11:13.098Z,26.83
2022-12-18T07:13:39.858Z,26.84
2022-12-18T07:16:11.195Z,26.49
2022-12-18T07:18:41.526Z,26.60
2022-12-18T07:21:07.924Z,26.74
2022-12-18T07:23:34.280Z,26.62
2022-12-18T07:26:00.686Z,26.09
2022-12-18T07:28:27.074Z,26.27
2022-12-18T07:30:54.583Z,25.86
2022-12-18T07:33:22.587Z,26.07
2022-12-18T07:35:48.937Z,26.36
2022-12-18T07:38:15.326Z,25.70
2022-12-18T07:40:41.701Z,26.55
2022-12-18T07:43:08.043Z,26.26
2022-12-18T07:45:34.436Z,26.45
2022-12-18T07:48:00.825Z,25.98
2022-12-18T07:50:27.163Z,25.93
2022-12-18T07:52:53.499Z,26.43
2022-12-18T07:55:19.886Z,27.04
2022-12-18T07:57:52.549Z,26.85
2022-12-18T08:00:20.664Z,27.01
2022-12-18T08:02:47.869Z,26.81
2022-12-18T08:05:15.067Z,26.74
2022-12-18T08:07:41.417Z,25.97
2022-12-18T08:10:07.806Z,26.70
2022-12-18T08:12:34.190Z,25.77
2022-12-18T08:15:00.738Z,26.75
2022-12-18T08:17:27.131Z,26.18
2022-12-18T08:19:53.517Z,26.03
2022-12-18T08:22:19.926Z,25.56
2022-12-18T08:24:46.299Z,26.12
2022-12-18T08:27:29.006Z,26.76
2022-12-18T08:29:55.984Z,26.02
2022-12-18T08:32:22.438Z,26.42
2022-12-18T08:34:48.847Z,26.49
2022-12-18T08:37:15.246Z,26.08
2022-12-18T08:39:41.608Z,26.40
2022-12-18T08:42:10.216Z,26.69
2022-12-18T08:44:36.877Z,26.26
2022-12-18T08:47:03.212Z,25.82
2022-12-18T08:49:29.595Z,26.43
2022-12-18T08:51:55.946Z,26.31
2022-12-18T08:54:22.283Z,26.35
2022-12-18T08:56:48.626Z,26.06
2022-12-18T08:59:19.489Z,26.08
2022-12-18T09:01:46.289Z,26.49
2022-12-18T09:04:12.727Z,27.23
2022-12-18T09:06:39.129Z,25.95
2022-12-18T09:09:05.962Z,25.70
2022-12-18T09:11:32.331Z,25.78
2022-12-18T09:13:58.741Z,26.18
2022-12-18T09:16:30.349Z,25.20
2022-12-18T09:18:58.555Z,25.57
2022-12-18T09:21:24.917Z,25.35
2022-12-18T09:23:51.310Z,26.17
2022-12-18T09:26:17.690Z,25.56
2022-12-18T09:28:44.174Z,25.15
2022-12-18T09:31:10.744Z,25.52
2022-12-18T09:33:37.119Z,25.72
2022-12-18T09:36:03.627Z,25.36
2022-12-18T09:38:30.141Z,25.15
2022-12-18T09:40:56.530Z,26.18
2022-12-18T09:43:22.879Z,26.68
2022-12-18T09:45:49.278Z,25.07
2022-12-18T09:48:15.697Z,25.58
2022-12-18T09:50:42.088Z,26.07
2022-12-18T09:53:08.477Z,25.49
2022-12-18T09:55:37.511Z,24.97
2022-12-18T09:58:04.149Z,24.85
2022-12-18T10:00:30.506Z,24.10
2022-12-18T10:02:56.985Z,23.92
2022-12-18T10:05:23.464Z,23.63
2022-12-18T10:07:49.818Z,23.67
2022-12-18T10:10:16.190Z,24.01
2022-12-18T10:12:42.545Z,23.68
2022-12-18T10:15:08.938Z,22.63
2022-12-18T10:17:35.307Z,22.09
2022-12-18T10:20:01.643Z,22.58
2022-12-18T10:22:28.032Z,23.04
2022-12-18T10:24:55.253Z,22.42
2022-12-18T10:27:22.100Z,22.85
2022-12-18T10:29:48.501Z,22.56
2022-12-18T10:32:14.849Z,21.12
2022-12-18T10:34:41.407Z,20.44
2022-12-18T10:37:07.766Z,20.65
2022-12-18T10:39:34.166Z,21.33
2022-12-18T10:42:00.518Z,22.09
2022-12-18T10:44:26.860Z,21.64
2022-12-18T10:46:53.320Z,21.46
2022-12-18T10:49:19.780Z,22.61
2022-12-18T10:51:46.177Z,22.38
2022-12-18T10:54:12.561Z,21.44
2022-12-18T10:56:38.913Z,22.10
2022-12-18T10:59:05.903Z,22.05
2022-12-18T11:01:32.515Z,21.26
2022-12-18T11:04:02.056Z,21.31
2022-12-18T11:06:29.170Z,21.71
2022-12-18T11:08:55.549Z,21.49
2022-12-18T11:11:21.907Z,21.75
2022-12-18T11:13:48.250Z,22.43
2022-12-18T11:16:14.687Z,21.94
2022-12-18T11:18:41.325Z,21.96
2022-12-18T11:21:07.947Z,22.84
2022-12-18T11:23:34.281Z,22.00
2022-12-18T11:26:00.669Z,21.94
2022-12-18T11:28:27.019Z,21.17
2022-12-18T11:30:53.439Z,20.92
2022-12-18T11:33:19.849Z,21.43
2022-12-18T11:35:46.197Z,21.18
2022-12-18T11:38:12.535Z,21.55
2022-12-18T11:40:41.382Z,21.70
2022-12-18T11:43:08.050Z,21.66
2022-12-18T11:45:34.556Z,21.19
2022-12-18T11:48:01.867Z,21.68
2022-12-18T11:50:28.207Z,21.47
2022-12-18T11:52:59.284Z,21.50
2022-12-18T11:55:27.928Z,21.41
2022-12-18T11:57:54.286Z,21.57
2022-12-18T12:00:20.692Z,21.64
2022-12-18T12:02:47.263Z,21.46
2022-12-18T12:05:13.723Z,21.21
2022-12-18T12:07:40.115Z,21.46
2022-12-18T12:10:06.471Z,21.65
2022-12-18T12:12:32.812Z,21.14
2022-12-18T12:14:59.217Z,21.63
2022-12-18T12:17:25.607Z,21.37
2022-12-18T12:19:52.005Z,21.01
2022-12-18T12:22:18.363Z,20.81
2022-12-18T12:24:44.705Z,20.93
2022-12-18T12:27:11.090Z,21.17
2022-12-18T12:29:37.629Z,21.50
2022-12-18T12:32:04.083Z,21.91
2022-12-18T12:34:30.457Z,22.80
2022-12-18T12:36:56.846Z,22.52
2022-12-18T12:39:23.238Z,22.44
2022-12-18T12:41:49.608Z,22.13
2022-12-18T12:44:15.946Z,22.67
2022-12-18T12:46:42.792Z,23.03
2022-12-18T12:49:09.131Z,22.91
2022-12-18T12:51:35.543Z,22.37
2022-12-18T12:54:02.075Z,22.67
2022-12-18T12:56:28.458Z,22.14
2022-12-18T12:58:54.863Z,21.67
2022-12-18T13:01:24.173Z,22.20
2022-12-18T13:03:50.769Z,22.68
2022-12-18T13:06:17.850Z,21.07
2022-12-18T13:08:44.626Z,21.88
2022-12-18T13:11:10.957Z,22.43
2022-12-18T13:13:38.706Z,23.34
2022-12-18T13:16:05.273Z,22.52
2022-12-18T13:18:32.887Z,22.58
2022-12-18T13:21:02.904Z,22.15
2022-12-18T13:23:29.880Z,22.37
2022-12-18T13:25:56.293Z,21.85
2022-12-18T13:28:22.927Z,21.65
2022-12-18T13:30:49.313Z,21.85
2022-12-18T13:33:17.111Z,21.75
2022-12-18T13:35:43.926Z,21.72
2022-12-18T13:38:10.352Z,21.77
2022-12-18T13:40:36.880Z,21.92
2022-12-18T13:43:03.263Z,21.79
2022-12-18T13:45:29.666Z,20.81
2022-12-18T13:47:56.196Z,21.49
2022-12-18T13:50:22.550Z,21.69
2022-12-18T13:52:48.979Z,21.48
2022-12-18T13:55:15.371Z,21.57
2022-12-18T13:57:42.138Z,22.51
2022-12-18T14:00:08.657Z,22.58
2022-12-18T14:02:35.643Z,22.14
2022-12-18T14:05:02.315Z,21.94
2022-12-18T14:07:31.160Z,21.85
2022-12-18T14:12:47.237Z,21.84
2022-12-18T14:15:14.550Z,21.64
2022-12-18T14:17:41.350Z,22.94
2022-12-18T14:20:07.741Z,22.91
2022-12-18T14:22:34.094Z,22.79
2022-12-18T14:25:00.462Z,23.11
2022-12-18T14:27:26.855Z,22.89
2022-12-18T14:29:53.227Z,23.19
2022-12-18T14:32:19.639Z,23.10
2022-12-18T14:34:46.024Z,22.63
2022-12-18T14:37:12.371Z,23.04
2022-12-18T14:39:38.714Z,22.66
2022-12-18T14:42:05.092Z,23.17
2022-12-18T14:44:44.258Z,23.84
2022-12-18T14:47:16.908Z,23.52
2022-12-18T14:49:43.643Z,23.28
2022-12-18T14:52:09.989Z,23.52
2022-12-18T14:54:38.001Z,24.05
2022-12-18T14:57:04.371Z,24.85
2022-12-18T14:59:30.755Z,24.40
2022-12-18T15:01:57.174Z,24.16
2022-12-18T15:04:23.700Z,24.24
2022-12-18T15:06:50.056Z,24.02
2022-12-18T15:09:16.405Z,24.11
2022-12-18T15:11:42.940Z,23.08
2022-12-18T15:14:09.576Z,23.12
2022-12-18T15:16:37.378Z,23.04
2022-12-18T15:19:03.905Z,23.56
2022-12-18T15:21:30.303Z,23.89
2022-12-18T15:23:56.690Z,24.29
2022-12-18T15:26:23.079Z,23.13
2022-12-18T15:28:49.456Z,23.37
2022-12-18T15:31:17.423Z,23.77
2022-12-18T15:33:44.528Z,23.12
2022-12-18T15:36:11.061Z,22.98
2022-12-18T15:38:37.474Z,22.77
2022-12-18T15:41:03.819Z,22.59
2022-12-18T15:43:30.203Z,22.71
2022-12-18T15:45:56.571Z,23.73
2022-12-18T15:48:22.931Z,23.11
2022-12-18T15:50:49.326Z,23.33
2022-12-18T15:53:15.670Z,23.90
2022-12-18T15:55:42.045Z,23.22
2022-12-18T15:58:08.437Z,23.40
2022-12-18T16:00:34.833Z,23.64
2022-12-18T16:03:01.318Z,22.78
2022-12-18T16:05:27.927Z,23.61
2022-12-18T16:07:54.321Z,24.26
2022-12-18T16:10:20.663Z,24.20
2022-12-18T16:12:47.063Z,25.44
2022-12-18T16:15:13.444Z,25.62
2022-12-18T16:17:39.790Z,25.14
2022-12-18T16:20:06.126Z,24.44
2022-12-18T16:22:32.474Z,25.18
2022-12-18T16:24:58.808Z,25.17
2022-12-18T16:27:25.144Z,25.80
2022-12-18T16:29:51.531Z,25.46
2022-12-18T16:32:17.907Z,25.14
2022-12-18T16:34:44.242Z,25.08
2022-12-18T16:37:10.587Z,25.50
2022-12-18T16:39:36.924Z,25.45
2022-12-18T16:42:05.613Z,26.31
2022-12-18T16:44:32.466Z,27.12
2022-12-18T16:46:58.854Z,27.41
2022-12-18T16:49:25.258Z,26.41
2022-12-18T16:51:51.652Z,27.42
2022-12-18T16:54:19.685Z,26.38
2022-12-18T16:56:46.360Z,26.04
2022-12-18T16:59:12.737Z,26.50
2022-12-18T17:01:39.222Z,25.58
2022-12-18T17:04:05.701Z,25.99
2022-12-18T17:06:32.105Z,26.65
2022-12-18T17:08:58.465Z,26.88
2022-12-18T17:11:24.803Z,30.34
2022-12-18T17:13:51.521Z,29.32
2022-12-18T17:16:17.930Z,25.61
2022-12-18T17:18:44.358Z,24.83
2022-12-18T17:21:10.751Z,25.85
2022-12-18T17:23:37.174Z,25.79
2022-12-18T17:26:03.625Z,25.66
2022-12-18T17:28:29.983Z,25.35
2022-12-18T17:30:56.339Z,27.46
2022-12-18T17:33:22.719Z,31.06
2022-12-18T17:35:49.108Z,32.47
2022-12-18T17:38:15.502Z,36.24
2022-12-18T17:40:46.261Z,28.25
2022-12-18T17:43:13.019Z,27.52
2022-12-18T17:45:39.385Z,26.78
2022-12-18T17:48:05.769Z,29.11
2022-12-18T17:50:32.115Z,28.40
2022-12-18T17:52:58.490Z,27.48
2022-12-18T17:55:24.877Z,27.43
2022-12-18T17:57:51.224Z,27.62
2022-12-18T18:00:17.595Z,27.54
2022-12-18T18:02:44.076Z,30.17
2022-12-18T18:05:10.599Z,28.39
2022-12-18T18:07:38.546Z,28.63
2022-12-18T18:10:04.998Z,26.54
2022-12-18T18:12:31.382Z,31.84
2022-12-18T18:14:57.738Z,48.91
2022-12-18T18:17:24.274Z,44.49
2022-12-18T18:19:50.615Z,36.76
2022-12-18T18:22:16.981Z,30.20
2022-12-18T18:24:45.075Z,27.79
2022-12-18T18:27:11.435Z,28.19
2022-12-18T18:29:37.964Z,29.39
2022-12-18T18:32:04.473Z,32.57
2022-12-18T18:34:30.925Z,29.45
2022-12-18T18:36:57.279Z,26.74
2022-12-18T18:39:23.654Z,26.81
2022-12-18T18:41:50.039Z,40.53
2022-12-18T18:44:16.393Z,31.58
2022-12-18T18:46:42.782Z,27.20
2022-12-18T18:49:09.128Z,27.76
2022-12-18T18:51:35.576Z,28.74
2022-12-18T18:54:01.985Z,28.65
2022-12-18T18:56:56.494Z,37.20
2022-12-18T18:59:14.705Z,31.81
2022-12-18T19:01:41.286Z,29.68
2022-12-18T19:04:08.898Z,31.12
2022-12-18T19:06:35.389Z,47.03
2022-12-18T19:09:02.611Z,32.14
2022-12-18T19:11:34.536Z,38.16
2022-12-18T19:14:02.824Z,49.27
2022-12-18T19:16:29.262Z,81.99
2022-12-18T19:18:59.996Z,44.48
2022-12-18T19:21:28.309Z,27.42
2022-12-18T19:23:57.518Z,42.50
2022-12-18T19:26:27.855Z,33.65
2022-12-18T19:28:54.752Z,33.03
2022-12-18T19:31:25.444Z,31.03
2022-12-18T19:33:53.553Z,29.83
2022-12-18T19:36:19.908Z,30.11
2022-12-18T19:38:46.405Z,46.31
2022-12-18T19:41:13.028Z,37.16
2022-12-18T19:43:40.303Z,32.98
2022-12-18T19:46:06.692Z,44.20
2022-12-18T19:48:33.098Z,45.71
2022-12-18T19:50:59.443Z,32.76
2022-12-18T19:53:25.824Z,29.90
2022-12-18T19:55:52.235Z,37.18
2022-12-18T19:58:18.630Z,41.14
2022-12-18T20:00:47.797Z,31.87
2022-12-18T20:03:24.279Z,33.40
2022-12-18T20:05:53.611Z,34.50
2022-12-18T20:08:19.991Z,41.57
2022-12-18T20:10:46.331Z,45.55
2022-12-18T20:13:13.256Z,35.06
2022-12-18T20:15:45.117Z,44.03
2022-12-18T20:18:11.921Z,49.79
2022-12-18T20:20:38.361Z,31.35
2022-12-18T20:23:04.861Z,31.30
2022-12-18T20:25:31.361Z,31.55
2022-12-18T20:27:57.737Z,35.84
2022-12-18T20:30:24.137Z,35.26
2022-12-18T20:32:50.500Z,35.27
2022-12-18T20:35:16.919Z,32.03
2022-12-18T20:37:48.732Z,31.91
2022-12-18T20:40:17.161Z,32.15
2022-12-18T20:42:43.558Z,31.94
2022-12-18T20:45:09.911Z,31.54
2022-12-18T20:47:36.286Z,34.84
2022-12-18T20:50:02.681Z,31.81
2022-12-18T20:52:29.032Z,39.78
2022-12-18T20:54:55.385Z,33.31
2022-12-18T20:57:23.414Z,34.17
2022-12-18T20:59:49.790Z,31.33
2022-12-18T21:02:16.296Z,30.60
2022-12-18T21:04:42.792Z,30.20
2022-12-18T21:07:09.154Z,28.70
2022-12-18T21:09:38.037Z,28.53
2022-12-18T21:12:04.985Z,30.22
2022-12-18T21:14:31.511Z,28.34
2022-12-18T21:16:57.935Z,40.04
2022-12-18T21:19:24.306Z,29.61
2022-12-18T21:21:51.370Z,29.23
2022-12-18T21:24:17.906Z,39.85
2022-12-18T21:26:46.106Z,42.95
2022-12-18T21:29:12.757Z,31.58
2022-12-18T21:31:39.359Z,34.52
2022-12-18T21:34:05.686Z,32.35
2022-12-18T21:36:32.024Z,29.46
2022-12-18T21:38:58.542Z,30.03
2022-12-18T21:41:25.046Z,30.37
2022-12-18T21:43:51.708Z,29.00
2022-12-18T21:46:18.115Z,32.42
2022-12-18T21:48:44.519Z,32.00
2022-12-18T21:51:10.917Z,28.75
2022-12-18T21:53:37.261Z,27.78
2022-12-18T21:56:03.642Z,29.15
2022-12-18T21:58:30.035Z,31.43
2022-12-18T22:00:56.421Z,30.96
2022-12-18T22:03:22.897Z,29.57
2022-12-18T22:05:51.980Z,27.85
2022-12-18T22:08:35.435Z,27.80
2022-12-18T22:11:05.882Z,29.04
2022-12-18T22:13:32.256Z,32.55
2022-12-18T22:15:58.696Z,32.51
2022-12-18T22:18:25.146Z,29.06
2022-12-18T22:20:51.495Z,30.92
2022-12-18T22:23:17.825Z,31.71
2022-12-18T22:25:44.159Z,29.64
2022-12-18T22:28:10.546Z,28.18
2022-12-18T22:30:36.899Z,27.04
2022-12-18T22:33:03.235Z,27.09
2022-12-18T22:35:29.571Z,29.88
2022-12-18T22:37:55.923Z,28.39
2022-12-18T22:40:24.684Z,28.15
2022-12-18T22:42:52.886Z,28.08
2022-12-18T22:45:19.279Z,27.22
2022-12-18T22:47:45.654Z,27.05
2022-12-18T22:50:12.025Z,26.55
2022-12-18T22:52:38.420Z,27.06
2022-12-18T22:55:04.812Z,27.28
2022-12-18T22:57:32.861Z,26.43
2022-12-18T23:00:00.755Z,26.23
2022-12-18T23:02:27.200Z,25.67
2022-12-18T23:04:53.631Z,25.94
2022-12-18T23:07:20.018Z,26.87
2022-12-18T23:09:46.390Z,26.26
2022-12-18T23:12:14.741Z,26.20
2022-12-18T23:14:41.096Z,25.72
2022-12-18T23:17:07.443Z,25.56
2022-12-18T23:19:33.826Z,26.23
2022-12-18T23:22:00.174Z,25.86
2022-12-18T23:24:26.537Z,26.22
2022-12-18T23:26:52.911Z,25.95
2022-12-18T23:29:19.309Z,25.58
2022-12-18T23:31:45.747Z,25.74
2022-12-18T23:34:12.192Z,26.33
2022-12-18T23:36:45.515Z,25.58
2022-12-18T23:39:12.482Z,25.45
2022-12-18T23:41:47.214Z,25.49
2022-12-18T23:44:13.547Z,25.08
2022-12-18T23:46:39.953Z,25.17
2022-12-18T23:49:06.633Z,25.38
2022-12-18T23:51:33.087Z,25.08
2022-12-18T23:54:01.222Z,25.87
2022-12-18T23:56:27.600Z,26.48
2022-12-18T23:58:53.972Z,26.21
